sensor_id;sensor_type;location;lat;lon;timestamp;temperature;humidity
22917;DHT22;11624;53.250;7.456;2024-02-23T00:01:29;11.84;56.19
22917;DHT22;11624;53.250;7.456;2024-02-23T00:03:59;11.74;56.23
22917;DHT22;11624;53.250;7.456;2024-02-23T00:06:29;11.73;56.11
22917;DHT22;11624;53.250;7.456;2024-02-23T00:08:58;11.74;56.22
22917;DHT22;11624;53.250;7.456;2024-02-23T00:11:26;11.74;56.23
22917;DHT22;11624;53.250;7.456;2024-02-23T00:13:56;11.68;56.42
22917;DHT22;11624;53.250;7.456;2024-02-23T00:16:25;11.61;56.62
22917;DHT22;11624;53.250;7.456;2024-02-23T00:18:53;11.66;56.72
22917;DHT22;11624;53.250;7.456;2024-02-23T00:21:23;11.53;57.10
22917;DHT22;11624;53.250;7.456;2024-02-23T00:23:52;11.59;57.12
22917;DHT22;11624;53.250;7.456;2024-02-23T00:26:20;11.56;56.95
22917;DHT22;11624;53.250;7.456;2024-02-23T00:28:49;11.45;56.99
22917;DHT22;11624;53.250;7.456;2024-02-23T00:31:17;11.49;56.84
22917;DHT22;11624;53.250;7.456;2024-02-23T00:33:45;11.47;57.06
22917;DHT22;11624;53.250;7.456;2024-02-23T00:36:14;11.53;57.12
22917;DHT22;11624;53.250;7.456;2024-02-23T00:38:44;11.37;57.13
22917;DHT22;11624;53.250;7.456;2024-02-23T00:41:12;11.51;56.93
22917;DHT22;11624;53.250;7.456;2024-02-23T00:43:41;11.39;57.32
22917;DHT22;11624;53.250;7.456;2024-02-23T00:46:09;11.43;57.09
22917;DHT22;11624;53.250;7.456;2024-02-23T00:48:41;11.44;56.99
22917;DHT22;11624;53.250;7.456;2024-02-23T00:51:09;11.58;56.83
22917;DHT22;11624;53.250;7.456;2024-02-23T00:53:38;11.64;56.74
22917;DHT22;11624;53.250;7.456;2024-02-23T00:56:08;11.76;56.43
22917;DHT22;11624;53.250;7.456;2024-02-23T00:58:36;11.83;56.19
22917;DHT22;11624;53.250;7.456;2024-02-23T01:01:05;11.74;56.24
22917;DHT22;11624;53.250;7.456;2024-02-23T01:03:34;11.61;56.48
22917;DHT22;11624;53.250;7.456;2024-02-23T01:06:03;11.52;57.00
22917;DHT22;11624;53.250;7.456;2024-02-23T01:08:31;11.46;57.09
22917;DHT22;11624;53.250;7.456;2024-02-23T01:10:59;11.59;56.71
22917;DHT22;11624;53.250;7.456;2024-02-23T01:13:30;11.64;56.53
22917;DHT22;11624;53.250;7.456;2024-02-23T01:15:58;11.48;56.72
22917;DHT22;11624;53.250;7.456;2024-02-23T01:18:26;11.43;56.86
22917;DHT22;11624;53.250;7.456;2024-02-23T01:20:56;11.44;57.03
22917;DHT22;11624;53.250;7.456;2024-02-23T01:23:24;11.58;56.92
22917;DHT22;11624;53.250;7.456;2024-02-23T01:25:53;11.38;57.45
22917;DHT22;11624;53.250;7.456;2024-02-23T01:28:22;11.51;57.11
22917;DHT22;11624;53.250;7.456;2024-02-23T01:30:52;11.62;56.23
22917;DHT22;11624;53.250;7.456;2024-02-23T01:33:20;11.67;55.78
22917;DHT22;11624;53.250;7.456;2024-02-23T01:35:49;11.46;56.07
22917;DHT22;11624;53.250;7.456;2024-02-23T01:38:18;11.45;56.22
22917;DHT22;11624;53.250;7.456;2024-02-23T01:40:48;11.54;55.90
22917;DHT22;11624;53.250;7.456;2024-02-23T01:43:16;11.45;55.88
22917;DHT22;11624;53.250;7.456;2024-02-23T01:45:45;11.31;56.22
22917;DHT22;11624;53.250;7.456;2024-02-23T01:48:15;11.44;55.52
22917;DHT22;11624;53.250;7.456;2024-02-23T01:50:44;11.31;55.39
22917;DHT22;11624;53.250;7.456;2024-02-23T01:53:13;11.24;55.36
22917;DHT22;11624;53.250;7.456;2024-02-23T01:55:42;11.16;55.51
22917;DHT22;11624;53.250;7.456;2024-02-23T01:58:11;11.07;55.58
22917;DHT22;11624;53.250;7.456;2024-02-23T02:00:39;10.97;55.60
22917;DHT22;11624;53.250;7.456;2024-02-23T02:03:08;10.95;55.30
22917;DHT22;11624;53.250;7.456;2024-02-23T02:05:40;10.92;55.61
22917;DHT22;11624;53.250;7.456;2024-02-23T02:08:10;10.85;55.78
22917;DHT22;11624;53.250;7.456;2024-02-23T02:10:39;10.86;55.58
22917;DHT22;11624;53.250;7.456;2024-02-23T02:13:09;10.94;55.17
22917;DHT22;11624;53.250;7.456;2024-02-23T02:15:38;10.79;55.45
22917;DHT22;11624;53.250;7.456;2024-02-23T02:18:06;10.94;55.31
22917;DHT22;11624;53.250;7.456;2024-02-23T02:20:36;11.02;54.54
22917;DHT22;11624;53.250;7.456;2024-02-23T02:23:06;10.96;54.91
22917;DHT22;11624;53.250;7.456;2024-02-23T02:25:36;10.98;54.84
22917;DHT22;11624;53.250;7.456;2024-02-23T02:28:06;10.84;54.94
22917;DHT22;11624;53.250;7.456;2024-02-23T02:30:35;10.94;55.15
22917;DHT22;11624;53.250;7.456;2024-02-23T02:33:03;10.99;55.03
22917;DHT22;11624;53.250;7.456;2024-02-23T02:35:32;11.00;55.10
22917;DHT22;11624;53.250;7.456;2024-02-23T02:38:00;11.08;55.04
22917;DHT22;11624;53.250;7.456;2024-02-23T02:40:30;11.04;55.05
22917;DHT22;11624;53.250;7.456;2024-02-23T02:42:59;11.05;55.14
22917;DHT22;11624;53.250;7.456;2024-02-23T02:45:27;11.10;55.24
22917;DHT22;11624;53.250;7.456;2024-02-23T02:47:56;11.12;54.98
22917;DHT22;11624;53.250;7.456;2024-02-23T02:50:24;11.15;55.33
22917;DHT22;11624;53.250;7.456;2024-02-23T02:52:53;11.26;55.30
22917;DHT22;11624;53.250;7.456;2024-02-23T02:55:21;11.23;55.57
22917;DHT22;11624;53.250;7.456;2024-02-23T02:57:51;11.18;55.72
22917;DHT22;11624;53.250;7.456;2024-02-23T03:00:20;11.16;55.68
22917;DHT22;11624;53.250;7.456;2024-02-23T03:02:48;11.18;55.97
22917;DHT22;11624;53.250;7.456;2024-02-23T03:05:17;11.07;56.25
22917;DHT22;11624;53.250;7.456;2024-02-23T03:07:45;11.17;56.13
22917;DHT22;11624;53.250;7.456;2024-02-23T03:10:14;11.14;56.36
22917;DHT22;11624;53.250;7.456;2024-02-23T03:12:43;11.16;56.50
22917;DHT22;11624;53.250;7.456;2024-02-23T03:15:13;11.19;56.27
22917;DHT22;11624;53.250;7.456;2024-02-23T03:17:42;11.19;56.36
22917;DHT22;11624;53.250;7.456;2024-02-23T03:20:11;11.16;56.19
22917;DHT22;11624;53.250;7.456;2024-02-23T03:22:39;11.23;56.29
22917;DHT22;11624;53.250;7.456;2024-02-23T03:25:08;11.30;55.89
22917;DHT22;11624;53.250;7.456;2024-02-23T03:27:37;11.37;56.08
22917;DHT22;11624;53.250;7.456;2024-02-23T03:30:06;11.42;56.09
22917;DHT22;11624;53.250;7.456;2024-02-23T03:32:37;11.53;55.26
22917;DHT22;11624;53.250;7.456;2024-02-23T03:35:07;11.59;55.42
22917;DHT22;11624;53.250;7.456;2024-02-23T03:37:36;11.69;55.14
22917;DHT22;11624;53.250;7.456;2024-02-23T03:40:06;11.58;55.28
22917;DHT22;11624;53.250;7.456;2024-02-23T03:42:35;11.56;55.33
22917;DHT22;11624;53.250;7.456;2024-02-23T03:45:04;11.63;54.94
22917;DHT22;11624;53.250;7.456;2024-02-23T03:47:33;11.54;54.98
22917;DHT22;11624;53.250;7.456;2024-02-23T03:50:04;11.66;54.68
22917;DHT22;11624;53.250;7.456;2024-02-23T03:52:32;11.70;54.43
22917;DHT22;11624;53.250;7.456;2024-02-23T03:55:01;11.67;54.34
22917;DHT22;11624;53.250;7.456;2024-02-23T03:57:31;11.70;54.23
22917;DHT22;11624;53.250;7.456;2024-02-23T04:00:00;11.75;53.97
22917;DHT22;11624;53.250;7.456;2024-02-23T04:02:38;11.69;54.19
22917;DHT22;11624;53.250;7.456;2024-02-23T04:05:09;11.69;54.21
22917;DHT22;11624;53.250;7.456;2024-02-23T04:07:37;11.68;54.54
22917;DHT22;11624;53.250;7.456;2024-02-23T04:10:07;11.73;54.61
22917;DHT22;11624;53.250;7.456;2024-02-23T04:12:35;11.89;54.13
22917;DHT22;11624;53.250;7.456;2024-02-23T04:15:05;11.85;54.00
22917;DHT22;11624;53.250;7.456;2024-02-23T04:17:33;11.89;54.04
22917;DHT22;11624;53.250;7.456;2024-02-23T04:20:08;11.74;53.57
22917;DHT22;11624;53.250;7.456;2024-02-23T04:22:37;11.67;54.36
22917;DHT22;11624;53.250;7.456;2024-02-23T04:25:07;11.60;54.13
22917;DHT22;11624;53.250;7.456;2024-02-23T04:27:34;11.83;53.56
22917;DHT22;11624;53.250;7.456;2024-02-23T04:30:04;11.81;53.51
22917;DHT22;11624;53.250;7.456;2024-02-23T04:32:33;11.74;53.34
22917;DHT22;11624;53.250;7.456;2024-02-23T04:35:02;11.69;53.47
22917;DHT22;11624;53.250;7.456;2024-02-23T04:37:31;11.70;53.11
22917;DHT22;11624;53.250;7.456;2024-02-23T04:40:04;11.51;53.63
22917;DHT22;11624;53.250;7.456;2024-02-23T04:42:33;11.49;54.04
22917;DHT22;11624;53.250;7.456;2024-02-23T04:45:01;11.44;54.39
22917;DHT22;11624;53.250;7.456;2024-02-23T04:47:30;11.31;55.01
22917;DHT22;11624;53.250;7.456;2024-02-23T04:49:59;11.36;55.07
22917;DHT22;11624;53.250;7.456;2024-02-23T04:52:31;11.16;55.71
22917;DHT22;11624;53.250;7.456;2024-02-23T04:55:00;11.25;55.36
22917;DHT22;11624;53.250;7.456;2024-02-23T04:57:28;11.14;55.60
22917;DHT22;11624;53.250;7.456;2024-02-23T04:59:58;11.17;55.14
22917;DHT22;11624;53.250;7.456;2024-02-23T05:02:26;11.17;55.29
22917;DHT22;11624;53.250;7.456;2024-02-23T05:05:01;11.19;54.91
22917;DHT22;11624;53.250;7.456;2024-02-23T05:07:33;11.23;54.55
22917;DHT22;11624;53.250;7.456;2024-02-23T05:10:01;11.22;54.58
22917;DHT22;11624;53.250;7.456;2024-02-23T05:12:31;11.22;54.19
22917;DHT22;11624;53.250;7.456;2024-02-23T05:14:59;11.14;54.39
22917;DHT22;11624;53.250;7.456;2024-02-23T05:17:27;11.19;54.14
22917;DHT22;11624;53.250;7.456;2024-02-23T05:19:56;11.16;54.01
22917;DHT22;11624;53.250;7.456;2024-02-23T05:22:24;11.11;53.98
22917;DHT22;11624;53.250;7.456;2024-02-23T05:24:54;11.18;53.86
22917;DHT22;11624;53.250;7.456;2024-02-23T05:27:23;11.20;53.83
22917;DHT22;11624;53.250;7.456;2024-02-23T05:29:51;11.28;53.71
22917;DHT22;11624;53.250;7.456;2024-02-23T05:32:20;11.14;53.70
22917;DHT22;11624;53.250;7.456;2024-02-23T05:34:48;11.10;54.18
22917;DHT22;11624;53.250;7.456;2024-02-23T05:37:20;11.05;54.09
22917;DHT22;11624;53.250;7.456;2024-02-23T05:39:48;11.04;54.20
22917;DHT22;11624;53.250;7.456;2024-02-23T05:42:19;11.07;53.77
22917;DHT22;11624;53.250;7.456;2024-02-23T05:44:47;11.08;53.59
22917;DHT22;11624;53.250;7.456;2024-02-23T05:47:16;11.19;53.60
22917;DHT22;11624;53.250;7.456;2024-02-23T05:49:45;11.26;53.41
22917;DHT22;11624;53.250;7.456;2024-02-23T05:52:13;11.16;53.83
22917;DHT22;11624;53.250;7.456;2024-02-23T05:54:42;11.30;53.60
22917;DHT22;11624;53.250;7.456;2024-02-23T05:57:11;11.34;53.49
22917;DHT22;11624;53.250;7.456;2024-02-23T05:59:41;11.37;53.23
22917;DHT22;11624;53.250;7.456;2024-02-23T06:02:09;11.38;53.39
22917;DHT22;11624;53.250;7.456;2024-02-23T06:04:37;11.34;53.44
22917;DHT22;11624;53.250;7.456;2024-02-23T06:07:06;11.41;53.43
22917;DHT22;11624;53.250;7.456;2024-02-23T06:09:34;11.38;53.48
22917;DHT22;11624;53.250;7.456;2024-02-23T06:12:03;11.38;53.43
22917;DHT22;11624;53.250;7.456;2024-02-23T06:14:32;11.46;53.46
22917;DHT22;11624;53.250;7.456;2024-02-23T06:17:03;11.48;53.19
22917;DHT22;11624;53.250;7.456;2024-02-23T06:19:34;11.49;53.50
22917;DHT22;11624;53.250;7.456;2024-02-23T06:22:02;11.61;53.29
22917;DHT22;11624;53.250;7.456;2024-02-23T06:24:30;11.68;53.28
22917;DHT22;11624;53.250;7.456;2024-02-23T06:26:59;11.70;53.11
22917;DHT22;11624;53.250;7.456;2024-02-23T06:29:27;11.63;53.20
22917;DHT22;11624;53.250;7.456;2024-02-23T06:31:56;11.63;53.20
22917;DHT22;11624;53.250;7.456;2024-02-23T06:34:26;11.54;52.93
22917;DHT22;11624;53.250;7.456;2024-02-23T06:36:54;11.47;53.27
22917;DHT22;11624;53.250;7.456;2024-02-23T06:39:23;11.59;53.01
22917;DHT22;11624;53.250;7.456;2024-02-23T06:41:51;11.73;52.70
22917;DHT22;11624;53.250;7.456;2024-02-23T06:44:20;11.85;52.43
22917;DHT22;11624;53.250;7.456;2024-02-23T06:46:48;11.83;52.36
22917;DHT22;11624;53.250;7.456;2024-02-23T06:49:17;11.82;52.30
22917;DHT22;11624;53.250;7.456;2024-02-23T06:51:47;11.94;52.04
22917;DHT22;11624;53.250;7.456;2024-02-23T06:54:15;11.86;52.02
22917;DHT22;11624;53.250;7.456;2024-02-23T06:56:44;11.77;52.28
22917;DHT22;11624;53.250;7.456;2024-02-23T06:59:13;11.69;52.30
22917;DHT22;11624;53.250;7.456;2024-02-23T07:01:48;11.62;51.90
22917;DHT22;11624;53.250;7.456;2024-02-23T07:04:18;11.63;52.33
22917;DHT22;11624;53.250;7.456;2024-02-23T07:06:48;11.75;52.03
22917;DHT22;11624;53.250;7.456;2024-02-23T07:09:16;11.74;52.05
22917;DHT22;11624;53.250;7.456;2024-02-23T07:11:45;11.74;52.24
22917;DHT22;11624;53.250;7.456;2024-02-23T07:14:13;11.73;52.12
22917;DHT22;11624;53.250;7.456;2024-02-23T07:16:44;11.66;52.41
22917;DHT22;11624;53.250;7.456;2024-02-23T07:19:12;11.79;52.46
22917;DHT22;11624;53.250;7.456;2024-02-23T07:21:41;11.88;52.23
22917;DHT22;11624;53.250;7.456;2024-02-23T07:24:11;11.98;51.85
22917;DHT22;11624;53.250;7.456;2024-02-23T07:26:40;11.90;52.09
22917;DHT22;11624;53.250;7.456;2024-02-23T07:29:08;11.92;52.00
22917;DHT22;11624;53.250;7.456;2024-02-23T07:31:37;12.00;51.65
22917;DHT22;11624;53.250;7.456;2024-02-23T07:34:05;11.98;51.73
22917;DHT22;11624;53.250;7.456;2024-02-23T07:36:34;11.92;52.04
22917;DHT22;11624;53.250;7.456;2024-02-23T07:39:02;11.88;52.09
22917;DHT22;11624;53.250;7.456;2024-02-23T07:41:32;12.02;52.05
22917;DHT22;11624;53.250;7.456;2024-02-23T07:44:01;12.14;51.79
22917;DHT22;11624;53.250;7.456;2024-02-23T07:46:29;12.12;51.27
22917;DHT22;11624;53.250;7.456;2024-02-23T07:48:58;12.15;51.39
22917;DHT22;11624;53.250;7.456;2024-02-23T07:51:26;12.14;51.45
22917;DHT22;11624;53.250;7.456;2024-02-23T07:53:55;12.18;51.43
22917;DHT22;11624;53.250;7.456;2024-02-23T07:56:24;12.28;51.33
22917;DHT22;11624;53.250;7.456;2024-02-23T07:58:54;12.23;51.33
22917;DHT22;11624;53.250;7.456;2024-02-23T08:01:22;12.29;50.79
22917;DHT22;11624;53.250;7.456;2024-02-23T08:03:50;12.35;51.07
22917;DHT22;11624;53.250;7.456;2024-02-23T08:06:19;12.26;51.13
22917;DHT22;11624;53.250;7.456;2024-02-23T08:08:48;12.33;50.79
22917;DHT22;11624;53.250;7.456;2024-02-23T08:11:16;12.45;50.68
22917;DHT22;11624;53.250;7.456;2024-02-23T08:13:45;12.34;50.95
22917;DHT22;11624;53.250;7.456;2024-02-23T08:16:17;12.52;50.26
22917;DHT22;11624;53.250;7.456;2024-02-23T08:18:46;12.57;50.35
22917;DHT22;11624;53.250;7.456;2024-02-23T08:21:14;12.75;50.27
22917;DHT22;11624;53.250;7.456;2024-02-23T08:23:43;12.66;49.91
22917;DHT22;11624;53.250;7.456;2024-02-23T08:26:12;12.79;49.98
22917;DHT22;11624;53.250;7.456;2024-02-23T08:28:40;12.81;49.60
22917;DHT22;11624;53.250;7.456;2024-02-23T08:31:09;12.99;49.73
22917;DHT22;11624;53.250;7.456;2024-02-23T08:33:39;13.02;49.33
22917;DHT22;11624;53.250;7.456;2024-02-23T08:36:08;13.06;49.31
22917;DHT22;11624;53.250;7.456;2024-02-23T08:38:36;13.05;48.80
22917;DHT22;11624;53.250;7.456;2024-02-23T08:41:05;13.06;48.50
22917;DHT22;11624;53.250;7.456;2024-02-23T08:43:36;12.99;48.53
22917;DHT22;11624;53.250;7.456;2024-02-23T08:46:05;13.08;48.68
22917;DHT22;11624;53.250;7.456;2024-02-23T08:48:36;13.15;48.60
22917;DHT22;11624;53.250;7.456;2024-02-23T08:51:06;13.26;48.44
22917;DHT22;11624;53.250;7.456;2024-02-23T08:53:34;13.21;48.37
22917;DHT22;11624;53.250;7.456;2024-02-23T08:56:04;13.16;48.26
22917;DHT22;11624;53.250;7.456;2024-02-23T08:58:34;13.30;48.05
22917;DHT22;11624;53.250;7.456;2024-02-23T09:01:03;13.22;48.27
22917;DHT22;11624;53.250;7.456;2024-02-23T09:03:32;13.41;47.81
22917;DHT22;11624;53.250;7.456;2024-02-23T09:06:01;13.35;47.80
22917;DHT22;11624;53.250;7.456;2024-02-23T09:08:32;13.34;47.89
22917;DHT22;11624;53.250;7.456;2024-02-23T09:11:01;13.44;47.84
22917;DHT22;11624;53.250;7.456;2024-02-23T09:13:30;13.36;47.50
22917;DHT22;11624;53.250;7.456;2024-02-23T09:15:58;13.50;47.19
22917;DHT22;11624;53.250;7.456;2024-02-23T09:18:27;13.41;47.19
22917;DHT22;11624;53.250;7.456;2024-02-23T09:20:55;13.43;46.83
22917;DHT22;11624;53.250;7.456;2024-02-23T09:23:24;13.58;46.67
22917;DHT22;11624;53.250;7.456;2024-02-23T09:25:54;13.75;46.72
22917;DHT22;11624;53.250;7.456;2024-02-23T09:28:23;13.79;46.36
22917;DHT22;11624;53.250;7.456;2024-02-23T09:30:51;13.71;46.29
22917;DHT22;11624;53.250;7.456;2024-02-23T09:33:23;13.88;46.19
22917;DHT22;11624;53.250;7.456;2024-02-23T09:35:52;13.88;45.89
22917;DHT22;11624;53.250;7.456;2024-02-23T09:38:20;13.80;45.90
22917;DHT22;11624;53.250;7.456;2024-02-23T09:40:51;13.97;45.82
22917;DHT22;11624;53.250;7.456;2024-02-23T09:43:21;13.81;45.41
22917;DHT22;11624;53.250;7.456;2024-02-23T09:45:51;13.88;45.70
22917;DHT22;11624;53.250;7.456;2024-02-23T09:48:20;13.84;45.61
22917;DHT22;11624;53.250;7.456;2024-02-23T09:50:52;13.83;45.65
22917;DHT22;11624;53.250;7.456;2024-02-23T09:53:21;13.89;45.38
22917;DHT22;11624;53.250;7.456;2024-02-23T09:55:58;13.86;44.81
22917;DHT22;11624;53.250;7.456;2024-02-23T09:58:30;13.91;45.08
22917;DHT22;11624;53.250;7.456;2024-02-23T10:01:02;13.96;44.64
22917;DHT22;11624;53.250;7.456;2024-02-23T10:03:30;13.93;44.64
22917;DHT22;11624;53.250;7.456;2024-02-23T10:05:59;13.97;44.79
22917;DHT22;11624;53.250;7.456;2024-02-23T10:08:29;14.04;44.09
22917;DHT22;11624;53.250;7.456;2024-02-23T10:11:01;14.10;44.00
22917;DHT22;11624;53.250;7.456;2024-02-23T10:13:31;14.12;43.71
22917;DHT22;11624;53.250;7.456;2024-02-23T10:15:59;14.14;43.22
22917;DHT22;11624;53.250;7.456;2024-02-23T10:18:41;14.60;43.87
22917;DHT22;11624;53.250;7.456;2024-02-23T10:21:09;14.86;41.49
22917;DHT22;11624;53.250;7.456;2024-02-23T10:23:39;14.86;41.04
22917;DHT22;11624;53.250;7.456;2024-02-23T10:26:08;14.82;41.38
22917;DHT22;11624;53.250;7.456;2024-02-23T10:28:38;14.57;41.26
22917;DHT22;11624;53.250;7.456;2024-02-23T10:31:07;14.53;41.65
22917;DHT22;11624;53.250;7.456;2024-02-23T10:33:39;14.43;41.49
22917;DHT22;11624;53.250;7.456;2024-02-23T10:36:09;14.47;41.28
22917;DHT22;11624;53.250;7.456;2024-02-23T10:38:40;14.44;41.55
22917;DHT22;11624;53.250;7.456;2024-02-23T10:41:12;14.45;41.38
22917;DHT22;11624;53.250;7.456;2024-02-23T10:43:44;14.43;41.31
22917;DHT22;11624;53.250;7.456;2024-02-23T10:46:14;14.41;41.64
22917;DHT22;11624;53.250;7.456;2024-02-23T10:48:44;14.33;41.48
22917;DHT22;11624;53.250;7.456;2024-02-23T10:51:13;14.49;41.97
22917;DHT22;11624;53.250;7.456;2024-02-23T10:53:48;14.53;41.42
22917;DHT22;11624;53.250;7.456;2024-02-23T10:56:17;14.72;41.61
22917;DHT22;11624;53.250;7.456;2024-02-23T10:58:47;14.70;41.39
22917;DHT22;11624;53.250;7.456;2024-02-23T11:01:16;14.74;41.52
22917;DHT22;11624;53.250;7.456;2024-02-23T11:03:46;14.70;41.55
22917;DHT22;11624;53.250;7.456;2024-02-23T11:06:17;14.60;41.40
22917;DHT22;11624;53.250;7.456;2024-02-23T11:08:48;14.69;41.51
22917;DHT22;11624;53.250;7.456;2024-02-23T11:11:18;14.64;41.56
22917;DHT22;11624;53.250;7.456;2024-02-23T11:13:48;14.63;41.34
22917;DHT22;11624;53.250;7.456;2024-02-23T11:16:22;14.45;41.32
22917;DHT22;11624;53.250;7.456;2024-02-23T11:19:03;14.65;41.47
22917;DHT22;11624;53.250;7.456;2024-02-23T11:21:36;14.65;41.30
22917;DHT22;11624;53.250;7.456;2024-02-23T11:24:06;14.65;41.29
22917;DHT22;11624;53.250;7.456;2024-02-23T11:26:37;14.54;40.99
22917;DHT22;11624;53.250;7.456;2024-02-23T11:29:16;14.60;41.29
22917;DHT22;11624;53.250;7.456;2024-02-23T11:31:46;14.59;41.69
22917;DHT22;11624;53.250;7.456;2024-02-23T11:34:21;14.72;41.20
22917;DHT22;11624;53.250;7.456;2024-02-23T11:36:51;14.67;41.24
22917;DHT22;11624;53.250;7.456;2024-02-23T11:39:20;14.79;41.39
22917;DHT22;11624;53.250;7.456;2024-02-23T11:41:50;14.77;41.49
22917;DHT22;11624;53.250;7.456;2024-02-23T11:44:20;14.84;41.17
22917;DHT22;11624;53.250;7.456;2024-02-23T11:46:48;14.69;41.26
22917;DHT22;11624;53.250;7.456;2024-02-23T11:49:17;14.68;41.56
22917;DHT22;11624;53.250;7.456;2024-02-23T11:51:45;14.70;41.28
22917;DHT22;11624;53.250;7.456;2024-02-23T11:54:14;14.70;41.45
22917;DHT22;11624;53.250;7.456;2024-02-23T11:56:43;14.74;41.40
22917;DHT22;11624;53.250;7.456;2024-02-23T11:59:11;14.34;41.42
22917;DHT22;11624;53.250;7.456;2024-02-23T12:01:42;14.51;41.84
22917;DHT22;11624;53.250;7.456;2024-02-23T12:04:11;14.54;41.82
22917;DHT22;11624;53.250;7.456;2024-02-23T12:06:40;14.27;42.51
22917;DHT22;11624;53.250;7.456;2024-02-23T12:09:09;14.54;42.66
22917;DHT22;11624;53.250;7.456;2024-02-23T12:11:39;14.78;42.47
22917;DHT22;11624;53.250;7.456;2024-02-23T12:14:08;14.89;42.06
22917;DHT22;11624;53.250;7.456;2024-02-23T12:16:37;14.99;41.62
22917;DHT22;11624;53.250;7.456;2024-02-23T12:19:09;15.11;41.60
22917;DHT22;11624;53.250;7.456;2024-02-23T12:21:38;15.19;41.44
22917;DHT22;11624;53.250;7.456;2024-02-23T12:24:07;15.49;41.07
22917;DHT22;11624;53.250;7.456;2024-02-23T12:26:35;15.76;40.55
22917;DHT22;11624;53.250;7.456;2024-02-23T12:29:05;15.71;39.83
22917;DHT22;11624;53.250;7.456;2024-02-23T12:31:34;15.71;40.40
22917;DHT22;11624;53.250;7.456;2024-02-23T12:34:03;15.88;40.61
22917;DHT22;11624;53.250;7.456;2024-02-23T12:36:35;15.95;40.07
22917;DHT22;11624;53.250;7.456;2024-02-23T12:39:04;15.68;40.51
22917;DHT22;11624;53.250;7.456;2024-02-23T12:41:32;15.55;40.91
22917;DHT22;11624;53.250;7.456;2024-02-23T12:44:01;15.17;42.19
22917;DHT22;11624;53.250;7.456;2024-02-23T12:46:30;14.91;43.72
22917;DHT22;11624;53.250;7.456;2024-02-23T12:48:58;14.55;45.12
22917;DHT22;11624;53.250;7.456;2024-02-23T12:51:26;14.44;46.80
22917;DHT22;11624;53.250;7.456;2024-02-23T12:53:56;14.06;48.76
22917;DHT22;11624;53.250;7.456;2024-02-23T12:56:25;13.61;50.23
22917;DHT22;11624;53.250;7.456;2024-02-23T12:58:53;13.55;50.50
22917;DHT22;11624;53.250;7.456;2024-02-23T13:01:22;13.56;50.53
22917;DHT22;11624;53.250;7.456;2024-02-23T13:03:51;13.51;50.69
22917;DHT22;11624;53.250;7.456;2024-02-23T13:06:20;13.61;50.58
22917;DHT22;11624;53.250;7.456;2024-02-23T13:08:49;13.76;50.15
22917;DHT22;11624;53.250;7.456;2024-02-23T13:11:18;13.98;50.56
22917;DHT22;11624;53.250;7.456;2024-02-23T13:13:47;14.11;50.00
22917;DHT22;11624;53.250;7.456;2024-02-23T13:16:15;14.23;49.43
22917;DHT22;11624;53.250;7.456;2024-02-23T13:18:44;14.17;49.63
22917;DHT22;11624;53.250;7.456;2024-02-23T13:21:14;14.21;49.71
22917;DHT22;11624;53.250;7.456;2024-02-23T13:23:42;14.24;49.82
22917;DHT22;11624;53.250;7.456;2024-02-23T13:26:11;14.22;50.08
22917;DHT22;11624;53.250;7.456;2024-02-23T13:28:43;14.22;50.09
22917;DHT22;11624;53.250;7.456;2024-02-23T13:31:12;14.06;49.52
22917;DHT22;11624;53.250;7.456;2024-02-23T13:33:40;13.78;50.44
22917;DHT22;11624;53.250;7.456;2024-02-23T13:36:09;13.80;50.21
22917;DHT22;11624;53.250;7.456;2024-02-23T13:38:38;13.89;50.12
22917;DHT22;11624;53.250;7.456;2024-02-23T13:41:09;14.09;50.02
22917;DHT22;11624;53.250;7.456;2024-02-23T13:43:38;14.05;50.15
22917;DHT22;11624;53.250;7.456;2024-02-23T13:46:08;13.88;50.07
22917;DHT22;11624;53.250;7.456;2024-02-23T13:48:37;13.85;49.98
22917;DHT22;11624;53.250;7.456;2024-02-23T13:51:05;13.93;49.89
22917;DHT22;11624;53.250;7.456;2024-02-23T13:53:34;14.00;49.93
22917;DHT22;11624;53.250;7.456;2024-02-23T13:56:04;14.08;49.85
22917;DHT22;11624;53.250;7.456;2024-02-23T13:58:33;14.14;49.83
22917;DHT22;11624;53.250;7.456;2024-02-23T14:01:02;14.26;49.80
22917;DHT22;11624;53.250;7.456;2024-02-23T14:03:32;14.14;49.73
22917;DHT22;11624;53.250;7.456;2024-02-23T14:06:01;14.11;50.17
22917;DHT22;11624;53.250;7.456;2024-02-23T14:08:29;14.11;50.22
22917;DHT22;11624;53.250;7.456;2024-02-23T14:11:01;14.06;50.43
22917;DHT22;11624;53.250;7.456;2024-02-23T14:13:30;14.01;50.98
22917;DHT22;11624;53.250;7.456;2024-02-23T14:16:01;14.13;50.96
22917;DHT22;11624;53.250;7.456;2024-02-23T14:18:32;14.14;50.60
22917;DHT22;11624;53.250;7.456;2024-02-23T14:21:04;14.30;50.53
22917;DHT22;11624;53.250;7.456;2024-02-23T14:23:33;14.41;50.61
22917;DHT22;11624;53.250;7.456;2024-02-23T14:26:03;14.67;51.54
22917;DHT22;11624;53.250;7.456;2024-02-23T14:28:31;15.42;49.56
22917;DHT22;11624;53.250;7.456;2024-02-23T14:31:00;15.80;47.09
22917;DHT22;11624;53.250;7.456;2024-02-23T14:33:29;16.02;45.97
22917;DHT22;11624;53.250;7.456;2024-02-23T14:35:58;16.10;45.23
22917;DHT22;11624;53.250;7.456;2024-02-23T14:38:27;15.85;44.89
22917;DHT22;11624;53.250;7.456;2024-02-23T14:40:55;15.58;45.49
22917;DHT22;11624;53.250;7.456;2024-02-23T14:43:24;15.17;46.43
22917;DHT22;11624;53.250;7.456;2024-02-23T14:45:52;15.02;46.98
22917;DHT22;11624;53.250;7.456;2024-02-23T14:48:21;15.03;47.30
22917;DHT22;11624;53.250;7.456;2024-02-23T14:50:50;14.88;47.76
22917;DHT22;11624;53.250;7.456;2024-02-23T14:53:20;14.99;48.29
22917;DHT22;11624;53.250;7.456;2024-02-23T14:55:50;15.40;48.01
22917;DHT22;11624;53.250;7.456;2024-02-23T14:58:19;15.47;46.44
22917;DHT22;11624;53.250;7.456;2024-02-23T15:00:48;15.43;46.11
22917;DHT22;11624;53.250;7.456;2024-02-23T15:03:16;15.15;46.33
22917;DHT22;11624;53.250;7.456;2024-02-23T15:05:45;14.94;47.02
22917;DHT22;11624;53.250;7.456;2024-02-23T15:08:13;14.93;47.17
22917;DHT22;11624;53.250;7.456;2024-02-23T15:10:43;14.92;47.17
22917;DHT22;11624;53.250;7.456;2024-02-23T15:13:12;14.91;46.99
22917;DHT22;11624;53.250;7.456;2024-02-23T15:15:40;14.77;47.41
22917;DHT22;11624;53.250;7.456;2024-02-23T15:18:09;14.79;47.52
22917;DHT22;11624;53.250;7.456;2024-02-23T15:20:37;14.93;47.22
22917;DHT22;11624;53.250;7.456;2024-02-23T15:23:06;14.92;47.02
22917;DHT22;11624;53.250;7.456;2024-02-23T15:25:35;15.02;46.92
22917;DHT22;11624;53.250;7.456;2024-02-23T15:28:10;15.06;46.60
22917;DHT22;11624;53.250;7.456;2024-02-23T15:30:39;14.85;46.95
22917;DHT22;11624;53.250;7.456;2024-02-23T15:33:07;14.80;47.11
22917;DHT22;11624;53.250;7.456;2024-02-23T15:35:36;14.80;47.06
22917;DHT22;11624;53.250;7.456;2024-02-23T15:38:04;14.86;46.91
22917;DHT22;11624;53.250;7.456;2024-02-23T15:40:33;14.81;47.00
22917;DHT22;11624;53.250;7.456;2024-02-23T15:43:01;14.84;46.77